Terminal Aerodrome Forecast
Issued by NWS

Home | Current Version | Previous Version | Graphics & Text | Print | Product List | Glossary On
Versions: 1 2 3 4 5 6 7 8 9 10 11 12 13 14 15 16
000
FTUS43 KMPX 092152 AAA
TAFAXN
TAF AMD
KAXN 092152Z 0922/1018 27009KT P6SM SCT120
     FM092300 23010KT P6SM SCT025 OVC090
     FM100700 30012G18KT P6SM BKN025
     FM101500 32012KT P6SM SCT025 BKN150=

USA.gov is the U.S. government's official web portal to all federal, state and local government web resources and services.